Airfield :
LOGIN :

Register | Disclaimer

   EN    FR    IT 

 










Legend :    VFR   Marginal VFR   IFR   Intensive IFR   Very Intensive IFR
Visi :
Ceiling :
>= 8 km
>= 3000ft
5 to 8 km
1000 to 3000 ft
1500m to 5 km
500 to 1000 ft
800 to 1500m
200 to 500 ft
< 800m
< 200 ft
Symbols :   Thunderstorms  Fog  Heavy snow  Heavy precipitations  Wind > 20 kt
SIGMETs :     Misc.  Thunderstorms  Icing  Turbulence  Mountain Waves  Volcanic Ashes






- Airport Elevation : 112 ft
- IATA code : KIR


EIKY - Kerry Farranfore

CURRENT METAR :
  • 191130Z 17008KT 120V190 9999 -RA SCT030 OVC041 11/08 Q1017

EXPIRED METARs :
  • 191100Z 15008KT 130V190 9999 -RA SCT028 OVC045 10/07 Q1018
  • 191030Z 16010KT 130V200 9999 -RA BKN046 10/07 Q1018
  • 191000Z 16007KT 140V200 9999 -RA BKN023 10/08 Q1018
  • 190930Z 16005KT 9999 -RA OVC023 09/08 Q1018
  • 190900Z 15004KT 120V180 9999 -RA OVC021 09/08 Q1018

TAF TAF EIKY
Valid from the 19 at 12:00 until the 19 at 21:00 UTC


191100Z 1912/1921 17010KT 9999 -RA SCT020 BKN045
PROB30
TEMPO 1917/1921 4000 BKN014



MET'MAP, your aeronautical weather chart ! - Copyright ORBIFLY December 2007 - Disclaimer

ORBIFLY MET'MAP TEAM :

Programming & Development : Alexandra Zaïnal
Concept & original design : Baudouin d'Aumeries
Assistance for programming : Marc-Olivier Méhu
Technical & hardware support : Manuel Goepfert

Contact : metmap@orbifly.com




SOURCES & CREDITS :

   NOAA